CheckWX is a tool to help pilots better visualize weather data.  It is not intended as a substitute for an official pre-flight weather briefing.

05:21:42 UTC

KEOK METAR
Keokuk Municipal Airport
Keokuk, Iowa, USA
Current

7 mins ago

KEOK 270515Z AUTO 14004KT 10SM FEW060 20/19 A3001 RMK AO2
Observed
May-27 @ 05:15 UTC
Wind
  • 140° at 4 KTS
Visibility
10 SM
Flight Rules
VFR
Cloud Levels
  • Few at 6,000' AGL
Temperature
20°C / 68°F
Dewpoint
19°C / 66°F
Humidity
94%
Altimeter
30.01" Hg
Pressure
1016.22 hPa
Previous

27 mins ago

KEOK 270455Z AUTO 00000KT 10SM CLR 20/19 A3001 RMK AO2
Observed
May-27 @ 04:55 UTC
Visibility
10 SM
Flight Rules
VFR
Cloud Levels
  • Clear skies
Temperature
20°C / 68°F
Dewpoint
19°C / 66°F
Humidity
94%
Altimeter
30.01" Hg
Pressure
1016.22 hPa
Previous

47 mins ago

KEOK 270435Z AUTO 13005KT 20/19 A3002 RMK AO2
Observed
May-27 @ 04:35 UTC
Wind
  • 130° at 5 KTS
Visibility
Temperature
20°C / 68°F
Dewpoint
19°C / 66°F
Humidity
94%
Altimeter
30.02" Hg
Pressure
1016.62 hPa